Time,TemperatureF,DewpointF,PressureIn,WindDirection,WindDirectionDegrees,WindSpeedMPH,WindSpeedGustMPH,Humidity,HourlyPrecipIn,Conditions,Clouds,dailyrainin,SoftwareType,DateUTC
2013-09-29 00:01:00,67.8,60.7,29.97,NE,51,0.0,0.0,78,0.00,,---,0.00,VWS V14.01,2013-09-29 04:01:00,
2013-09-29 00:02:00,67.8,60.7,29.97,NE,51,0.0,0.0,78,0.00,,---,0.00,VWS V14.01,2013-09-29 04:02:00,
2013-09-29 00:07:00,67.6,60.5,29.97,NE,51,0.0,0.0,78,0.00,,---,0.00,VWS V14.01,2013-09-29 04:07:00,
2013-09-29 00:12:00,67.5,60.4,29.97,NE,51,0.0,0.0,78,0.00,,---,0.00,VWS V14.01,2013-09-29 04:12:00,
2013-09-29 00:17:00,67.3,60.2,30.00,NE,51,0.0,0.0,78,0.00,,---,0.00,VWS V14.01,2013-09-29 04:17:00,
2013-09-29 00:22:00,67.1,60.0,30.00,NE,51,0.0,0.0,78,0.00,,---,0.00,VWS V14.01,2013-09-29 04:22:00,
2013-09-29 00:27:00,67.1,60.0,30.00,NE,51,0.0,0.0,78,0.00,,---,0.00,VWS V14.01,2013-09-29 04:27:00,
2013-09-29 00:32:00,66.9,60.2,29.97,NE,51,0.0,0.0,79,0.00,,---,0.00,VWS V14.01,2013-09-29 04:32:00,
2013-09-29 00:37:00,66.9,60.2,29.97,NE,51,0.0,0.0,79,0.00,,---,0.00,VWS V14.01,2013-09-29 04:37:00,
2013-09-29 00:42:00,66.7,60.0,29.97,NE,51,0.0,0.0,79,0.00,,---,0.00,VWS V14.01,2013-09-29 04:42:00,
2013-09-29 00:47:00,66.7,60.0,29.97,NE,51,0.0,0.0,79,0.00,,---,0.00,VWS V14.01,2013-09-29 04:47:00,
2013-09-29 00:52:00,66.7,60.0,29.97,NE,51,0.0,0.0,79,0.00,,---,0.00,VWS V14.01,2013-09-29 04:52:00,
2013-09-29 00:57:00,66.7,60.0,29.97,NE,51,0.0,0.0,79,0.00,,---,0.00,VWS V14.01,2013-09-29 04:57:00,
2013-09-29 01:02:00,66.6,60.2,29.97,NE,51,0.0,0.0,80,0.00,,---,0.00,VWS V14.01,2013-09-29 05:02:00,
2013-09-29 01:07:00,66.6,60.2,29.97,NE,51,0.0,0.0,80,0.00,,---,0.00,VWS V14.01,2013-09-29 05:07:00,
2013-09-29 01:12:00,66.6,60.2,29.97,NE,51,0.0,0.0,80,0.00,,---,0.00,VWS V14.01,2013-09-29 05:12:00,
2013-09-29 01:17:00,66.7,60.4,29.97,NE,51,0.0,0.0,80,0.00,,---,0.00,VWS V14.01,2013-09-29 05:17:00,
2013-09-29 01:22:00,66.7,60.4,29.97,NE,51,0.0,0.0,80,0.00,,---,0.00,VWS V14.01,2013-09-29 05:22:00,
2013-09-29 01:27:00,66.6,60.2,29.97,NE,51,0.0,0.0,80,0.00,,---,0.00,VWS V14.01,2013-09-29 05:27:00,
2013-09-29 01:32:00,66.6,60.6,29.97,NE,51,0.0,0.0,81,0.00,,---,0.00,VWS V14.01,2013-09-29 05:32:00,
2013-09-29 01:37:00,66.6,60.6,29.97,NE,51,0.0,0.0,81,0.00,,---,0.00,VWS V14.01,2013-09-29 05:37:00,
2013-09-29 01:42:00,66.7,60.7,29.97,NE,51,0.0,0.0,81,0.00,,---,0.00,VWS V14.01,2013-09-29 05:42:00,
2013-09-29 01:47:00,66.7,60.7,29.97,NE,51,0.0,0.0,81,0.00,,---,0.00,VWS V14.01,2013-09-29 05:47:00,
2013-09-29 01:52:00,66.7,60.7,29.97,NE,51,0.0,0.0,81,0.00,,---,0.00,VWS V14.01,2013-09-29 05:52:00,
2013-09-29 01:57:00,66.7,60.7,29.97,NW,306,0.0,0.0,81,0.00,,---,0.00,VWS V14.01,2013-09-29 05:57:00,
2013-09-29 02:02:00,66.9,61.2,29.97,NW,306,0.0,0.0,82,0.00,,---,0.00,VWS V14.01,2013-09-29 06:02:00,
2013-09-29 02:07:00,66.9,61.2,29.97,NW,306,0.0,0.0,82,0.00,,---,0.00,VWS V14.01,2013-09-29 06:07:00,
2013-09-29 02:12:00,67.1,61.4,29.97,NW,307,0.0,0.0,82,0.00,,---,0.00,VWS V14.01,2013-09-29 06:12:00,
2013-09-29 02:17:00,67.1,61.4,29.97,NW,308,0.0,0.0,82,0.00,,---,0.00,VWS V14.01,2013-09-29 06:17:00,
2013-09-29 02:22:00,67.3,61.6,29.97,NW,308,0.0,0.0,82,0.00,,---,0.00,VWS V14.01,2013-09-29 06:22:00,
2013-09-29 02:27:00,67.3,61.6,29.97,NW,308,0.0,0.0,82,0.00,,---,0.00,VWS V14.01,2013-09-29 06:27:00,
2013-09-29 02:32:00,67.3,61.6,29.94,NW,308,0.0,0.0,82,0.00,,---,0.00,VWS V14.01,2013-09-29 06:32:00,
2013-09-29 02:37:00,67.3,62.0,29.94,NW,308,0.0,0.0,83,0.00,,---,0.00,VWS V14.01,2013-09-29 06:37:00,
2013-09-29 02:42:00,67.5,62.1,29.94,North,353,0.0,0.0,83,0.00,,---,0.00,VWS V14.01,2013-09-29 06:42:00,
2013-09-29 02:47:00,67.5,62.1,29.94,North,353,0.0,0.0,83,0.00,,---,0.00,VWS V14.01,2013-09-29 06:47:00,
2013-09-29 02:52:00,67.5,62.1,29.94,North,353,0.0,0.0,83,0.00,,---,0.00,VWS V14.01,2013-09-29 06:52:00,
2013-09-29 02:57:00,67.6,62.3,29.94,North,353,0.0,0.0,83,0.00,,---,0.00,VWS V14.01,2013-09-29 06:57:00,
2013-09-29 03:02:00,67.6,62.3,29.94,North,353,0.0,0.0,83,0.00,,---,0.00,VWS V14.01,2013-09-29 07:02:00,
2013-09-29 03:07:00,67.8,62.8,29.94,ENE,70,0.0,0.0,84,0.00,,---,0.00,VWS V14.01,2013-09-29 07:07:00,
2013-09-29 03:12:00,67.8,62.8,29.94,NE,56,0.0,0.0,84,0.00,,---,0.00,VWS V14.01,2013-09-29 07:12:00,
2013-09-29 03:17:00,68.0,63.0,29.94,WSW,253,0.0,0.0,84,0.00,,---,0.00,VWS V14.01,2013-09-29 07:17:00,
2013-09-29 03:22:00,68.0,63.0,29.94,North,353,0.0,0.0,84,0.00,,---,0.00,VWS V14.01,2013-09-29 07:22:00,
2013-09-29 03:27:00,68.0,63.0,29.94,North,353,0.0,0.0,84,0.00,,---,0.00,VWS V14.01,2013-09-29 07:27:00,
2013-09-29 03:32:00,68.0,63.0,29.94,North,353,0.0,0.0,84,0.00,,---,0.00,VWS V14.01,2013-09-29 07:32:00,
2013-09-29 03:37:00,68.0,63.0,29.94,North,353,0.0,0.0,84,0.00,,---,0.00,VWS V14.01,2013-09-29 07:37:00,
2013-09-29 03:42:00,68.0,63.0,29.94,North,353,0.0,0.0,84,0.00,,---,0.00,VWS V14.01,2013-09-29 07:42:00,
2013-09-29 03:47:00,68.0,63.0,29.94,North,357,0.0,0.0,84,0.00,,---,0.00,VWS V14.01,2013-09-29 07:47:00,
2013-09-29 03:52:00,68.2,63.2,29.94,NNW,336,0.0,0.0,84,0.00,,---,0.00,VWS V14.01,2013-09-29 07:52:00,
2013-09-29 03:57:00,68.0,63.0,29.94,NNW,331,0.0,0.0,84,0.00,,---,0.00,VWS V14.01,2013-09-29 07:57:00,
2013-09-29 04:02:00,68.2,63.2,29.94,ENE,74,0.0,0.0,84,0.00,,---,0.00,VWS V14.01,2013-09-29 08:02:00,
2013-09-29 04:07:00,68.0,63.0,29.94,ENE,74,0.0,0.0,84,0.00,,---,0.00,VWS V14.01,2013-09-29 08:07:00,
2013-09-29 04:12:00,68.0,63.0,29.94,ENE,74,0.0,0.0,84,0.00,,---,0.00,VWS V14.01,2013-09-29 08:12:00,
2013-09-29 04:17:00,68.0,63.0,29.91,North,2,0.0,0.0,84,0.00,,---,0.00,VWS V14.01,2013-09-29 08:17:00,
2013-09-29 04:22:00,68.0,63.0,29.91,NE,41,0.0,0.0,84,0.00,,---,0.00,VWS V14.01,2013-09-29 08:22:00,
2013-09-29 04:27:00,68.0,63.0,29.91,NNW,337,0.0,0.0,84,0.00,,---,0.00,VWS V14.01,2013-09-29 08:27:00,
2013-09-29 04:32:00,68.0,63.3,29.94,North,357,0.0,0.0,85,0.00,,---,0.00,VWS V14.01,2013-09-29 08:32:00,
2013-09-29 04:37:00,68.0,63.3,29.94,NNW,337,0.0,0.0,85,0.00,,---,0.00,VWS V14.01,2013-09-29 08:37:00,
2013-09-29 04:42:00,68.0,63.3,29.94,NNW,327,0.0,0.0,85,0.00,,---,0.00,VWS V14.01,2013-09-29 08:42:00,
2013-09-29 04:47:00,68.0,63.3,29.94,NW,319,0.0,0.0,85,0.00,,---,0.00,VWS V14.01,2013-09-29 08:47:00,
2013-09-29 04:52:00,68.0,63.3,29.94,NW,319,0.0,0.0,85,0.00,,---,0.00,VWS V14.01,2013-09-29 08:52:00,
2013-09-29 04:57:00,68.0,63.3,29.94,NW,307,0.0,0.0,85,0.00,,---,0.00,VWS V14.01,2013-09-29 08:57:00,
2013-09-29 05:02:00,68.0,63.3,29.94,NW,307,0.0,0.0,85,0.00,,---,0.00,VWS V14.01,2013-09-29 09:02:00,
2013-09-29 05:07:00,68.0,63.3,29.94,NW,315,0.0,0.0,85,0.00,,---,0.00,VWS V14.01,2013-09-29 09:07:00,
2013-09-29 05:12:00,68.0,63.3,29.94,NW,315,0.0,0.0,85,0.00,,---,0.00,VWS V14.01,2013-09-29 09:12:00,
2013-09-29 05:17:00,68.0,63.7,29.94,SE,132,0.0,0.0,86,0.00,,---,0.00,VWS V14.01,2013-09-29 09:17:00,
2013-09-29 05:22:00,68.0,63.7,29.94,South,172,0.0,0.0,86,0.00,,---,0.00,VWS V14.01,2013-09-29 09:22:00,
2013-09-29 05:27:00,68.0,63.7,29.94,West,271,0.0,0.0,86,0.00,,---,0.00,VWS V14.01,2013-09-29 09:27:00,
2013-09-29 05:32:00,68.0,63.7,29.94,NW,304,0.0,0.0,86,0.00,,---,0.00,VWS V14.01,2013-09-29 09:32:00,
2013-09-29 05:37:00,68.0,63.7,29.94,NE,46,0.0,0.0,86,0.00,,---,0.00,VWS V14.01,2013-09-29 09:37:00,
2013-09-29 05:42:00,68.0,63.7,29.94,NE,46,0.0,0.0,86,0.00,,---,0.00,VWS V14.01,2013-09-29 09:42:00,
2013-09-29 05:47:00,68.0,63.7,29.94,NE,46,0.0,0.0,86,0.00,,---,0.00,VWS V14.01,2013-09-29 09:47:00,
2013-09-29 05:52:00,68.0,63.7,29.94,NE,46,0.0,0.0,86,0.00,,---,0.00,VWS V14.01,2013-09-29 09:52:00,
2013-09-29 05:57:00,68.0,63.7,29.94,NNE,27,0.0,0.0,86,0.00,,---,0.00,VWS V14.01,2013-09-29 09:57:00,
2013-09-29 06:02:00,68.0,63.7,29.94,NNE,26,0.0,0.0,86,0.00,,---,0.00,VWS V14.01,2013-09-29 10:02:00,
2013-09-29 06:07:00,68.0,64.0,29.94,NNE,26,0.0,0.0,87,0.00,,---,0.00,VWS V14.01,2013-09-29 10:07:00,
2013-09-29 06:12:00,68.0,64.0,29.94,NNE,26,0.0,0.0,87,0.00,,---,0.00,VWS V14.01,2013-09-29 10:12:00,
2013-09-29 06:17:00,68.0,64.0,29.97,NNE,26,0.0,0.0,87,0.00,,---,0.00,VWS V14.01,2013-09-29 10:17:00,
2013-09-29 06:22:00,68.0,64.0,29.97,NNE,26,0.0,0.0,87,0.00,,---,0.00,VWS V14.01,2013-09-29 10:22:00,
2013-09-29 06:27:00,68.0,64.0,29.97,North,0,0.0,0.0,87,0.00,,---,0.00,VWS V14.01,2013-09-29 10:27:00,
2013-09-29 06:32:00,67.8,63.8,29.97,North,0,0.0,0.0,87,0.00,,---,0.00,VWS V14.01,2013-09-29 10:32:00,
2013-09-29 06:37:00,67.8,63.8,29.97,NE,43,0.0,0.0,87,0.00,,---,0.00,VWS V14.01,2013-09-29 10:37:00,
2013-09-29 06:42:00,67.8,63.8,29.97,NNW,328,0.0,0.0,87,0.00,,---,0.00,VWS V14.01,2013-09-29 10:42:00,
2013-09-29 06:47:00,67.8,63.8,29.97,NNW,332,0.0,0.0,87,0.00,,---,0.00,VWS V14.01,2013-09-29 10:47:00,
2013-09-29 06:52:00,67.6,63.6,29.97,NNW,332,0.0,0.0,87,0.00,,---,0.00,VWS V14.01,2013-09-29 10:52:00,
2013-09-29 06:57:00,67.6,63.6,29.97,NNW,332,0.0,0.0,87,0.00,,---,0.00,VWS V14.01,2013-09-29 10:57:00,
2013-09-29 07:03:00,67.6,63.6,29.97,NNW,332,0.0,0.0,87,0.00,,---,0.00,VWS V14.01,2013-09-29 11:03:00,
2013-09-29 07:08:00,67.5,63.5,29.97,West,278,0.0,0.0,87,0.00,,---,0.00,VWS V14.01,2013-09-29 11:08:00,
2013-09-29 07:13:00,67.5,63.8,29.97,West,278,0.0,0.0,88,0.00,,---,0.00,VWS V14.01,2013-09-29 11:13:00,
2013-09-29 07:18:00,67.5,63.8,29.97,West,278,0.0,0.0,88,0.00,,---,0.00,VWS V14.01,2013-09-29 11:18:00,
2013-09-29 07:23:00,67.5,63.8,29.97,WNW,284,0.0,0.0,88,0.00,,---,0.00,VWS V14.01,2013-09-29 11:23:00,
2013-09-29 07:28:00,67.3,63.6,29.97,WNW,284,0.0,0.0,88,0.00,,---,0.00,VWS V14.01,2013-09-29 11:28:00,
2013-09-29 07:33:00,67.3,63.6,29.97,WNW,284,0.0,0.0,88,0.00,,---,0.00,VWS V14.01,2013-09-29 11:33:00,
2013-09-29 07:38:00,67.3,63.6,29.97,WNW,284,0.0,0.0,88,0.00,,---,0.00,VWS V14.01,2013-09-29 11:38:00,
2013-09-29 07:43:00,67.3,63.6,29.97,WNW,284,0.0,0.0,88,0.00,,---,0.00,VWS V14.01,2013-09-29 11:43:00,
2013-09-29 07:48:00,67.3,63.6,29.97,West,259,0.0,0.0,88,0.00,,---,0.00,VWS V14.01,2013-09-29 11:48:00,
2013-09-29 07:53:00,67.3,63.6,29.97,West,259,0.0,0.0,88,0.00,,---,0.00,VWS V14.01,2013-09-29 11:53:00,
2013-09-29 07:58:00,67.3,63.9,29.97,NNW,327,0.0,0.0,89,0.00,,---,0.00,VWS V14.01,2013-09-29 11:58:00,
2013-09-29 08:03:00,67.3,63.9,29.97,NNW,327,0.0,0.0,89,0.00,,---,0.00,VWS V14.01,2013-09-29 12:03:00,
2013-09-29 08:08:00,67.5,64.1,29.97,NE,37,0.0,0.0,89,0.00,,---,0.00,VWS V14.01,2013-09-29 12:08:00,
2013-09-29 08:13:00,67.5,64.1,29.97,NE,34,0.0,0.0,89,0.00,,---,0.00,VWS V14.01,2013-09-29 12:13:00,
2013-09-29 08:18:00,67.5,64.1,29.97,West,273,0.0,0.0,89,0.00,,---,0.00,VWS V14.01,2013-09-29 12:18:00,
2013-09-29 08:23:00,67.6,64.6,29.97,North,353,0.0,0.0,90,0.00,,---,0.00,VWS V14.01,2013-09-29 12:23:00,
2013-09-29 08:28:00,67.6,64.6,29.97,NNE,30,0.0,0.0,90,0.00,,---,0.00,VWS V14.01,2013-09-29 12:28:00,
2013-09-29 08:33:00,67.8,64.8,29.97,NW,322,0.0,0.0,90,0.00,,---,0.00,VWS V14.01,2013-09-29 12:33:00,
2013-09-29 08:38:00,67.8,65.1,29.97,NNE,26,0.0,0.0,91,0.00,,---,0.00,VWS V14.01,2013-09-29 12:38:00,
2013-09-29 08:43:00,67.8,65.1,29.97,ENE,68,0.0,2.2,91,0.00,,---,0.00,VWS V14.01,2013-09-29 12:43:00,
2013-09-29 08:48:00,68.0,65.0,29.97,NW,316,0.0,0.0,90,0.00,,---,0.00,VWS V14.01,2013-09-29 12:48:00,
2013-09-29 08:53:00,68.0,65.0,29.97,North,357,0.0,0.0,90,0.00,,---,0.00,VWS V14.01,2013-09-29 12:53:00,
2013-09-29 08:58:00,68.0,65.3,29.97,NE,51,0.0,2.2,91,0.00,,---,0.00,VWS V14.01,2013-09-29 12:58:00,
2013-09-29 09:03:00,68.2,65.5,29.97,North,349,0.0,0.0,91,0.00,,---,0.00,VWS V14.01,2013-09-29 13:03:00,
2013-09-29 09:08:00,68.4,65.6,29.97,East,82,0.0,0.0,91,0.00,,---,0.00,VWS V14.01,2013-09-29 13:08:00,
2013-09-29 09:13:00,68.4,65.6,29.97,NNE,19,0.0,0.0,91,0.00,,---,0.00,VWS V14.01,2013-09-29 13:13:00,
2013-09-29 09:18:00,68.5,65.8,29.97,North,357,0.0,0.0,91,0.00,,---,0.00,VWS V14.01,2013-09-29 13:18:00,
2013-09-29 09:23:00,68.7,66.3,29.97,North,8,0.0,0.0,92,0.00,,---,0.00,VWS V14.01,2013-09-29 13:23:00,
2013-09-29 09:28:00,68.9,66.5,29.97,NNE,24,0.0,0.0,92,0.00,,---,0.00,VWS V14.01,2013-09-29 13:28:00,
2013-09-29 09:33:00,69.3,67.2,29.97,NNE,15,0.0,0.0,93,0.00,,---,0.00,VWS V14.01,2013-09-29 13:33:00,
2013-09-29 09:38:00,69.6,68.4,29.97,NNE,22,2.7,2.7,96,0.00,,---,0.00,VWS V14.01,2013-09-29 13:38:00,
2013-09-29 09:43:00,70.2,69.3,29.97,North,353,0.0,4.0,97,0.00,,---,0.00,VWS V14.01,2013-09-29 13:43:00,
2013-09-29 09:48:00,70.3,68.8,29.97,WNW,297,0.0,0.0,95,0.00,,---,0.00,VWS V14.01,2013-09-29 13:48:00,
2013-09-29 09:53:00,70.7,69.5,29.97,NNW,344,0.0,0.0,96,0.00,,---,0.00,VWS V14.01,2013-09-29 13:53:00,
2013-09-29 09:58:00,71.1,69.6,29.97,NNE,23,0.0,0.0,95,0.00,,---,0.00,VWS V14.01,2013-09-29 13:58:00,
2013-09-29 10:03:00,71.4,69.9,30.00,North,353,0.0,0.0,95,0.00,,---,0.00,VWS V14.01,2013-09-29 14:03:00,
2013-09-29 10:08:00,71.8,70.0,30.00,North,353,0.0,0.0,94,0.00,,---,0.00,VWS V14.01,2013-09-29 14:08:00,
2013-09-29 10:13:00,72.1,70.0,30.00,NE,44,0.0,0.0,93,0.00,,---,0.00,VWS V14.01,2013-09-29 14:13:00,
2013-09-29 10:18:00,72.3,70.2,29.97,NE,51,2.2,2.2,93,0.00,,---,0.00,VWS V14.01,2013-09-29 14:18:00,
2013-09-29 10:23:00,72.9,70.4,29.97,NNE,20,0.0,0.0,92,0.00,,---,0.00,VWS V14.01,2013-09-29 14:23:00,
2013-09-29 10:28:00,73.2,69.8,29.97,NNE,29,2.2,2.2,89,0.00,,---,0.00,VWS V14.01,2013-09-29 14:28:00,
2013-09-29 10:33:00,73.6,69.8,29.97,North,353,0.0,0.0,88,0.00,,---,0.00,VWS V14.01,2013-09-29 14:33:00,
2013-09-29 10:38:00,73.9,70.2,29.97,WNW,286,0.0,0.0,88,0.00,,---,0.00,VWS V14.01,2013-09-29 14:38:00,
2013-09-29 10:43:00,74.3,69.5,29.97,NNW,331,0.0,0.0,85,0.00,,---,0.00,VWS V14.01,2013-09-29 14:43:00,
2013-09-29 10:48:00,74.7,67.7,29.97,NE,43,0.0,0.0,79,0.00,,---,0.00,VWS V14.01,2013-09-29 14:48:00,
2013-09-29 10:53:00,75.0,68.1,29.97,NNE,31,0.0,0.0,79,0.00,,---,0.00,VWS V14.01,2013-09-29 14:53:00,
2013-09-29 10:58:00,75.2,68.6,29.97,ENE,66,2.7,3.1,80,0.00,,---,0.00,VWS V14.01,2013-09-29 14:58:00,
2013-09-29 11:03:00,75.4,65.3,29.97,NNW,346,3.6,5.4,71,0.00,,---,0.00,VWS V14.01,2013-09-29 15:03:00,
2013-09-29 11:09:00,75.9,68.6,29.97,WNW,292,3.1,4.0,78,0.00,,---,0.00,VWS V14.01,2013-09-29 15:09:00,
2013-09-29 11:14:00,76.3,68.6,29.97,SE,131,3.1,3.1,77,0.00,,---,0.00,VWS V14.01,2013-09-29 15:14:00,
2013-09-29 11:19:00,76.3,67.4,29.97,ENE,62,7.2,7.2,74,0.00,,---,0.00,VWS V14.01,2013-09-29 15:19:00,
2013-09-29 11:24:00,76.8,68.3,29.97,SE,124,2.7,2.7,75,0.00,,---,0.00,VWS V14.01,2013-09-29 15:24:00,
2013-09-29 11:29:00,77.2,63.6,29.97,NNW,337,2.7,3.1,63,0.00,,---,0.00,VWS V14.01,2013-09-29 15:29:00,
2013-09-29 11:34:00,77.9,68.2,29.97,SSE,154,2.2,5.4,72,0.00,,---,0.00,VWS V14.01,2013-09-29 15:34:00,
2013-09-29 11:39:00,78.3,66.8,29.97,North,353,2.7,2.7,68,0.00,,---,0.00,VWS V14.01,2013-09-29 15:39:00,
2013-09-29 11:44:00,79.0,68.4,29.97,NE,45,3.1,3.1,70,0.00,,---,0.00,VWS V14.01,2013-09-29 15:44:00,
2013-09-29 11:49:00,79.3,67.9,29.97,NE,36,5.4,5.4,68,0.00,,---,0.00,VWS V14.01,2013-09-29 15:49:00,
2013-09-29 11:54:00,79.9,68.4,29.97,North,8,2.2,3.1,68,0.00,,---,0.00,VWS V14.01,2013-09-29 15:54:00,
2013-09-29 11:59:00,80.1,67.2,29.97,ESE,121,0.0,0.0,65,0.00,,---,0.00,VWS V14.01,2013-09-29 15:59:00,
2013-09-29 12:04:00,79.7,66.0,29.97,SE,133,2.7,4.0,63,0.00,,---,0.00,VWS V14.01,2013-09-29 16:04:00,
2013-09-29 12:09:00,79.7,67.3,29.97,ENE,76,3.1,3.1,66,0.00,,---,0.00,VWS V14.01,2013-09-29 16:09:00,
2013-09-29 12:14:00,79.7,66.9,29.97,ESE,119,2.2,3.1,65,0.00,,---,0.00,VWS V14.01,2013-09-29 16:14:00,
2013-09-29 12:19:00,80.1,63.5,29.97,NE,39,5.4,5.4,57,0.00,,---,0.00,VWS V14.01,2013-09-29 16:19:00,
2013-09-29 12:24:00,80.4,64.3,29.97,NNE,30,3.1,3.6,58,0.00,,---,0.00,VWS V14.01,2013-09-29 16:24:00,
2013-09-29 12:29:00,80.1,60.9,29.97,North,0,4.9,5.8,52,0.00,,---,0.00,VWS V14.01,2013-09-29 16:29:00,
2013-09-29 12:34:00,79.9,65.2,29.97,ENE,62,0.0,2.2,61,0.00,,---,0.00,VWS V14.01,2013-09-29 16:34:00,
2013-09-29 12:39:00,79.7,65.5,29.97,NNW,330,2.7,2.7,62,0.00,,---,0.00,VWS V14.01,2013-09-29 16:39:00,
2013-09-29 12:44:00,79.5,64.9,29.97,SSW,198,0.0,2.2,61,0.00,,---,0.00,VWS V14.01,2013-09-29 16:44:00,
2013-09-29 12:49:00,79.7,64.1,29.97,SSE,161,3.6,5.4,59,0.00,,---,0.00,VWS V14.01,2013-09-29 16:49:00,
2013-09-29 12:54:00,80.2,62.6,29.97,NW,326,0.0,0.0,55,0.00,,---,0.00,VWS V14.01,2013-09-29 16:54:00,
2013-09-29 12:59:00,80.6,62.4,29.97,ENE,73,2.2,2.7,54,0.00,,---,0.00,VWS V14.01,2013-09-29 16:59:00,
2013-09-29 13:04:00,80.6,65.0,29.97,ENE,71,2.7,3.6,59,0.00,,---,0.00,VWS V14.01,2013-09-29 17:04:00,
2013-09-29 13:09:00,80.4,65.3,29.97,East,91,2.2,2.7,60,0.00,,---,0.00,VWS V14.01,2013-09-29 17:09:00,
2013-09-29 13:14:00,80.8,61.5,29.97,SSW,197,3.1,3.1,52,0.00,,---,0.00,VWS V14.01,2013-09-29 17:14:00,
2013-09-29 13:19:00,81.3,63.6,29.97,ESE,105,3.1,3.6,55,0.00,,---,0.00,VWS V14.01,2013-09-29 17:19:00,
2013-09-29 13:24:00,81.9,62.5,29.97,NNW,335,3.1,4.0,52,0.00,,---,0.00,VWS V14.01,2013-09-29 17:24:00,
2013-09-29 13:29:00,82.0,61.6,29.97,North,357,2.2,3.1,50,0.00,,---,0.00,VWS V14.01,2013-09-29 17:29:00,
2013-09-29 13:34:00,82.2,60.0,29.94,NW,313,3.1,4.0,47,0.00,,---,0.00,VWS V14.01,2013-09-29 17:34:00,
2013-09-29 13:39:00,82.0,61.6,29.94,ENE,67,2.7,4.0,50,0.00,,---,0.00,VWS V14.01,2013-09-29 17:39:00,
2013-09-29 13:44:00,81.5,60.5,29.94,South,175,2.2,4.9,49,0.00,,---,0.00,VWS V14.01,2013-09-29 17:44:00,
2013-09-29 13:49:00,81.3,60.3,29.94,East,98,0.0,2.7,49,0.00,,---,0.00,VWS V14.01,2013-09-29 17:49:00,
2013-09-29 13:54:00,80.8,59.3,29.94,ENE,57,3.1,3.6,48,0.00,,---,0.00,VWS V14.01,2013-09-29 17:54:00,
2013-09-29 13:59:00,81.0,61.7,29.94,ENE,57,0.0,0.0,52,0.00,,---,0.00,VWS V14.01,2013-09-29 17:59:00,
2013-09-29 14:04:00,81.5,61.7,29.94,ENE,74,2.2,5.8,51,0.00,,---,0.00,VWS V14.01,2013-09-29 18:04:00,
2013-09-29 14:09:00,81.3,60.9,29.94,NE,41,0.0,3.6,50,0.00,,---,0.00,VWS V14.01,2013-09-29 18:09:00,
2013-09-29 14:14:00,80.6,60.3,29.94,North,357,0.0,0.0,50,0.00,,---,0.00,VWS V14.01,2013-09-29 18:14:00,
2013-09-29 14:19:00,80.1,59.8,29.91,NE,34,0.0,0.0,50,0.00,,---,0.00,VWS V14.01,2013-09-29 18:19:00,
2013-09-29 14:24:00,79.5,59.3,29.91,NE,55,2.7,2.7,50,0.00,,---,0.00,VWS V14.01,2013-09-29 18:24:00,
2013-09-29 14:29:00,79.3,59.7,29.91,ENE,70,4.0,4.0,51,0.00,,---,0.00,VWS V14.01,2013-09-29 18:29:00,
2013-09-29 14:34:00,79.3,59.7,29.94,West,269,0.0,0.0,51,0.00,,---,0.00,VWS V14.01,2013-09-29 18:34:00,
2013-09-29 14:39:00,79.5,60.9,29.94,NE,36,0.0,2.7,53,0.00,,---,0.00,VWS V14.01,2013-09-29 18:39:00,
2013-09-29 14:44:00,79.7,61.1,29.94,NNE,20,2.7,2.7,53,0.00,,---,0.00,VWS V14.01,2013-09-29 18:44:00,
2013-09-29 14:49:00,80.2,61.0,29.94,ENE,70,3.1,5.4,52,0.00,,---,0.00,VWS V14.01,2013-09-29 18:49:00,
2013-09-29 14:54:00,81.0,60.6,29.94,North,4,4.0,4.0,50,0.00,,---,0.00,VWS V14.01,2013-09-29 18:54:00,
2013-09-29 14:59:00,81.7,58.9,29.94,ENE,60,4.0,4.0,46,0.00,,---,0.00,VWS V14.01,2013-09-29 18:59:00,
2013-09-29 15:04:00,82.2,61.8,29.91,SE,129,3.1,4.0,50,0.00,,---,0.00,VWS V14.01,2013-09-29 19:04:00,
2013-09-29 15:09:00,82.2,57.5,29.91,East,95,2.2,4.0,43,0.00,,---,0.00,VWS V14.01,2013-09-29 19:09:00,
2013-09-29 15:14:00,82.2,58.2,29.91,WNW,283,0.0,2.7,44,0.00,,---,0.00,VWS V14.01,2013-09-29 19:14:00,
2013-09-29 15:19:00,82.4,59.0,29.91,ENE,66,3.1,3.1,45,0.00,,---,0.00,VWS V14.01,2013-09-29 19:19:00,
2013-09-29 15:24:00,82.0,56.7,29.91,ENE,75,3.1,3.1,42,0.00,,---,0.00,VWS V14.01,2013-09-29 19:24:00,
2013-09-29 15:29:00,82.0,59.8,29.91,NNE,22,3.1,3.1,47,0.00,,---,0.00,VWS V14.01,2013-09-29 19:29:00,
2013-09-29 15:34:00,81.9,57.8,29.91,East,100,3.1,3.1,44,0.00,,---,0.00,VWS V14.01,2013-09-29 19:34:00,
2013-09-29 15:39:00,81.7,57.7,29.91,North,349,2.2,2.7,44,0.00,,---,0.00,VWS V14.01,2013-09-29 19:39:00,
2013-09-29 15:44:00,81.1,57.2,29.91,NNW,337,2.2,4.0,44,0.00,,---,0.00,VWS V14.01,2013-09-29 19:44:00,
2013-09-29 15:48:00,80.8,57.5,29.91,North,353,3.6,3.6,45,0.00,,---,0.00,VWS V14.01,2013-09-29 19:48:00,
2013-09-29 15:53:00,80.2,58.2,29.91,NE,39,0.0,0.0,47,0.00,,---,0.00,VWS V14.01,2013-09-29 19:53:00,
2013-09-29 15:58:00,80.2,58.8,29.91,North,6,4.9,4.9,48,0.00,,---,0.00,VWS V14.01,2013-09-29 19:58:00,
2013-09-29 16:03:00,80.2,59.9,29.91,ENE,77,2.7,3.1,50,0.00,,---,0.00,VWS V14.01,2013-09-29 20:03:00,
2013-09-29 16:08:00,80.6,58.5,29.91,NNE,27,4.0,5.8,47,0.00,,---,0.00,VWS V14.01,2013-09-29 20:08:00,
2013-09-29 16:13:00,80.6,57.9,29.91,East,93,6.3,6.3,46,0.00,,---,0.00,VWS V14.01,2013-09-29 20:13:00,
2013-09-29 16:18:00,80.4,57.2,29.88,NE,38,4.0,4.0,45,0.00,,---,0.00,VWS V14.01,2013-09-29 20:18:00,
2013-09-29 16:23:00,80.1,58.6,29.88,ENE,58,0.0,0.0,48,0.00,,---,0.00,VWS V14.01,2013-09-29 20:23:00,
2013-09-29 16:28:00,79.7,58.3,29.88,ENE,59,3.1,3.1,48,0.00,,---,0.00,VWS V14.01,2013-09-29 20:28:00,
2013-09-29 16:33:00,79.5,58.1,29.91,NE,34,0.0,2.2,48,0.00,,---,0.00,VWS V14.01,2013-09-29 20:33:00,
2013-09-29 16:38:00,79.7,59.4,29.91,ESE,104,2.7,2.7,50,0.00,,---,0.00,VWS V14.01,2013-09-29 20:38:00,
2013-09-29 16:43:00,79.7,59.4,29.91,NNE,24,2.7,3.6,50,0.00,,---,0.00,VWS V14.01,2013-09-29 20:43:00,
2013-09-29 16:49:00,79.9,59.6,29.91,ENE,60,2.7,2.7,50,0.00,,---,0.00,VWS V14.01,2013-09-29 20:49:00,
2013-09-29 16:53:00,80.1,59.8,29.91,ENE,75,3.1,3.1,50,0.00,,---,0.00,VWS V14.01,2013-09-29 20:53:00,
2013-09-29 16:58:00,80.1,59.2,29.91,NW,326,0.0,0.0,49,0.00,,---,0.00,VWS V14.01,2013-09-29 20:58:00,
2013-09-29 17:04:00,80.1,59.8,29.88,East,94,5.8,5.8,50,0.00,,---,0.00,VWS V14.01,2013-09-29 21:04:00,
2013-09-29 17:09:00,80.1,58.6,29.88,NE,55,0.0,2.2,48,0.00,,---,0.00,VWS V14.01,2013-09-29 21:09:00,
2013-09-29 17:14:00,79.9,59.0,29.88,North,0,3.1,3.1,49,0.00,,---,0.00,VWS V14.01,2013-09-29 21:14:00,
2013-09-29 17:19:00,79.5,59.3,29.91,NNE,28,3.1,3.1,50,0.00,,---,0.00,VWS V14.01,2013-09-29 21:19:00,
2013-09-29 17:24:00,79.3,59.1,29.91,ENE,57,3.6,4.0,50,0.00,,---,0.00,VWS V14.01,2013-09-29 21:24:00,
2013-09-29 17:29:00,79.0,57.6,29.91,NNE,20,3.1,4.0,48,0.00,,---,0.00,VWS V14.01,2013-09-29 21:29:00,
2013-09-29 17:34:00,78.6,58.4,29.91,North,357,0.0,2.7,50,0.00,,---,0.00,VWS V14.01,2013-09-29 21:34:00,
2013-09-29 17:39:00,78.3,58.1,29.91,ENE,58,0.0,0.0,50,0.00,,---,0.00,VWS V14.01,2013-09-29 21:39:00,
2013-09-29 17:44:00,78.1,58.0,29.91,NE,51,2.7,3.6,50,0.00,,---,0.00,VWS V14.01,2013-09-29 21:44:00,
2013-09-29 17:49:00,77.9,57.8,29.91,ENE,64,0.0,4.5,50,0.00,,---,0.00,VWS V14.01,2013-09-29 21:49:00,
2013-09-29 17:54:00,77.7,57.6,29.91,East,92,2.2,2.2,50,0.00,,---,0.00,VWS V14.01,2013-09-29 21:54:00,
2013-09-29 17:59:00,77.5,58.0,29.91,North,0,0.0,0.0,51,0.00,,---,0.00,VWS V14.01,2013-09-29 21:59:00,
2013-09-29 18:04:00,77.4,57.8,29.91,SE,146,0.0,2.7,51,0.00,,---,0.00,VWS V14.01,2013-09-29 22:04:00,
2013-09-29 18:09:00,77.4,57.8,29.91,ESE,111,3.1,3.1,51,0.00,,---,0.00,VWS V14.01,2013-09-29 22:09:00,
2013-09-29 18:14:00,77.4,57.8,29.91,ENE,70,2.2,3.1,51,0.00,,---,0.00,VWS V14.01,2013-09-29 22:14:00,
2013-09-29 18:19:00,77.4,57.8,29.91,NW,320,2.2,4.0,51,0.00,,---,0.00,VWS V14.01,2013-09-29 22:19:00,
2013-09-29 18:24:00,77.2,57.7,29.91,NNE,15,0.0,0.0,51,0.00,,---,0.00,VWS V14.01,2013-09-29 22:24:00,
2013-09-29 18:29:00,77.0,57.5,29.91,NE,44,0.0,0.0,51,0.00,,---,0.00,VWS V14.01,2013-09-29 22:29:00,
2013-09-29 18:34:00,76.8,57.3,29.91,WSW,245,0.0,0.0,51,0.00,,---,0.00,VWS V14.01,2013-09-29 22:34:00,
2013-09-29 18:39:00,76.6,57.2,29.91,ENE,63,0.0,2.7,51,0.00,,---,0.00,VWS V14.01,2013-09-29 22:39:00,
2013-09-29 18:44:00,76.5,57.5,29.91,ENE,60,0.0,0.0,52,0.00,,---,0.00,VWS V14.01,2013-09-29 22:44:00,
2013-09-29 18:49:00,76.3,57.4,29.91,SW,218,0.0,0.0,52,0.00,,---,0.00,VWS V14.01,2013-09-29 22:49:00,
2013-09-29 18:54:00,76.1,57.2,29.91,East,85,3.1,3.1,52,0.00,,---,0.00,VWS V14.01,2013-09-29 22:54:00,
2013-09-29 18:59:00,75.9,57.0,29.91,ENE,60,4.9,5.8,52,0.00,,---,0.00,VWS V14.01,2013-09-29 22:59:00,
2013-09-29 19:04:00,75.7,56.9,29.94,East,86,0.0,0.0,52,0.00,,---,0.00,VWS V14.01,2013-09-29 23:04:00,
2013-09-29 19:09:00,75.6,56.7,29.94,NE,46,0.0,0.0,52,0.00,,---,0.00,VWS V14.01,2013-09-29 23:09:00,
2013-09-29 19:14:00,75.4,57.1,29.94,NNE,32,0.0,0.0,53,0.00,,---,0.00,VWS V14.01,2013-09-29 23:14:00,
2013-09-29 19:19:00,75.0,56.8,29.94,NW,325,0.0,0.0,53,0.00,,---,0.00,VWS V14.01,2013-09-29 23:19:00,
2013-09-29 19:24:00,74.8,57.1,29.94,NNW,333,0.0,0.0,54,0.00,,---,0.00,VWS V14.01,2013-09-29 23:24:00,
2013-09-29 19:29:00,74.5,56.8,29.94,ENE,77,0.0,0.0,54,0.00,,---,0.00,VWS V14.01,2013-09-29 23:29:00,
2013-09-29 19:34:00,74.3,56.6,29.94,WSW,245,0.0,3.1,54,0.00,,---,0.00,VWS V14.01,2013-09-29 23:34:00,
2013-09-29 19:39:00,74.1,56.9,29.94,North,10,0.0,0.0,55,0.00,,---,0.00,VWS V14.01,2013-09-29 23:39:00,
2013-09-29 19:44:00,73.9,57.3,29.94,ENE,75,0.0,0.0,56,0.00,,---,0.00,VWS V14.01,2013-09-29 23:44:00,
2013-09-29 19:49:00,73.6,56.4,29.94,North,7,0.0,0.0,55,0.00,,---,0.00,VWS V14.01,2013-09-29 23:49:00,
2013-09-29 19:54:00,73.4,56.3,29.94,North,8,0.0,0.0,55,0.00,,---,0.00,VWS V14.01,2013-09-29 23:54:00,
2013-09-29 19:59:00,73.2,56.1,29.94,NNE,29,0.0,0.0,55,0.00,,---,0.00,VWS V14.01,2013-09-29 23:59:00,
2013-09-29 20:04:00,73.0,55.9,29.94,NNE,29,0.0,0.0,55,0.00,,---,0.00,VWS V14.01,2013-09-30 00:04:00,
2013-09-29 20:09:00,72.9,55.8,29.94,ESE,105,0.0,0.0,55,0.00,,---,0.00,VWS V14.01,2013-09-30 00:09:00,
2013-09-29 20:14:00,72.7,55.6,29.94,ESE,105,0.0,0.0,55,0.00,,---,0.00,VWS V14.01,2013-09-30 00:14:00,
2013-09-29 20:19:00,72.3,55.3,29.94,ESE,105,0.0,0.0,55,0.00,,---,0.00,VWS V14.01,2013-09-30 00:19:00,
2013-09-29 20:24:00,72.1,55.1,29.94,ESE,105,0.0,0.0,55,0.00,,---,0.00,VWS V14.01,2013-09-30 00:24:00,
2013-09-29 20:29:00,71.8,54.8,29.94,ESE,105,0.0,0.0,55,0.00,,---,0.00,VWS V14.01,2013-09-30 00:29:00,
2013-09-29 20:34:00,71.4,54.4,29.94,ESE,105,0.0,0.0,55,0.00,,---,0.00,VWS V14.01,2013-09-30 00:34:00,
2013-09-29 20:39:00,71.2,54.3,29.94,ESE,105,0.0,0.0,55,0.00,,---,0.00,VWS V14.01,2013-09-30 00:39:00,
2013-09-29 20:44:00,70.9,54.4,29.94,ESE,105,0.0,0.0,56,0.00,,---,0.00,VWS V14.01,2013-09-30 00:44:00,
2013-09-29 20:49:00,70.7,54.2,29.94,ESE,105,0.0,0.0,56,0.00,,---,0.00,VWS V14.01,2013-09-30 00:49:00,
2013-09-29 20:54:00,70.3,53.9,29.94,ESE,105,0.0,0.0,56,0.00,,---,0.00,VWS V14.01,2013-09-30 00:54:00,
2013-09-29 20:59:00,70.2,53.8,29.94,ESE,105,0.0,0.0,56,0.00,,---,0.00,VWS V14.01,2013-09-30 00:59:00,
2013-09-29 21:04:00,70.0,53.6,29.94,ESE,105,0.0,0.0,56,0.00,,---,0.00,VWS V14.01,2013-09-30 01:04:00,
2013-09-29 21:09:00,69.8,53.9,29.94,ESE,105,0.0,0.0,57,0.00,,---,0.00,VWS V14.01,2013-09-30 01:09:00,
2013-09-29 21:14:00,69.8,53.9,29.94,ESE,105,0.0,0.0,57,0.00,,---,0.00,VWS V14.01,2013-09-30 01:14:00,
2013-09-29 21:19:00,69.6,53.7,29.97,ESE,105,0.0,0.0,57,0.00,,---,0.00,VWS V14.01,2013-09-30 01:19:00,
2013-09-29 21:24:00,69.4,54.0,29.97,ESE,105,0.0,0.0,58,0.00,,---,0.00,VWS V14.01,2013-09-30 01:24:00,
2013-09-29 21:29:00,69.3,53.9,29.97,ESE,105,0.0,0.0,58,0.00,,---,0.00,VWS V14.01,2013-09-30 01:29:00,
2013-09-29 21:34:00,69.1,53.7,29.97,ESE,105,0.0,0.0,58,0.00,,---,0.00,VWS V14.01,2013-09-30 01:34:00,
2013-09-29 21:39:00,69.1,53.7,29.97,ESE,105,0.0,0.0,58,0.00,,---,0.00,VWS V14.01,2013-09-30 01:39:00,
2013-09-29 21:44:00,68.9,53.5,29.97,ESE,105,0.0,0.0,58,0.00,,---,0.00,VWS V14.01,2013-09-30 01:44:00,
2013-09-29 21:50:00,68.7,53.8,29.97,ESE,105,0.0,0.0,59,0.00,,---,0.00,VWS V14.01,2013-09-30 01:50:00,
2013-09-29 21:55:00,68.7,53.8,29.97,ESE,105,0.0,0.0,59,0.00,,---,0.00,VWS V14.01,2013-09-30 01:55:00,
2013-09-29 22:00:00,68.5,53.7,29.97,ESE,105,0.0,0.0,59,0.00,,---,0.00,VWS V14.01,2013-09-30 02:00:00,
2013-09-29 22:05:00,68.5,53.7,29.97,ESE,105,0.0,0.0,59,0.00,,---,0.00,VWS V14.01,2013-09-30 02:05:00,
2013-09-29 22:10:00,68.4,54.0,29.97,ESE,105,0.0,0.0,60,0.00,,---,0.00,VWS V14.01,2013-09-30 02:10:00,
2013-09-29 22:15:00,68.4,54.0,29.97,ESE,105,0.0,0.0,60,0.00,,---,0.00,VWS V14.01,2013-09-30 02:15:00,
2013-09-29 22:20:00,68.2,53.8,29.97,ESE,105,0.0,0.0,60,0.00,,---,0.00,VWS V14.01,2013-09-30 02:20:00,
2013-09-29 22:25:00,68.2,53.8,29.97,ESE,105,0.0,0.0,60,0.00,,---,0.00,VWS V14.01,2013-09-30 02:25:00,
2013-09-29 22:30:00,68.2,54.2,29.97,ESE,105,0.0,0.0,61,0.00,,---,0.00,VWS V14.01,2013-09-30 02:30:00,
2013-09-29 22:35:00,68.2,54.2,29.97,ESE,105,0.0,0.0,61,0.00,,---,0.00,VWS V14.01,2013-09-30 02:35:00,
2013-09-29 22:40:00,68.0,54.1,29.97,ESE,105,0.0,0.0,61,0.00,,---,0.00,VWS V14.01,2013-09-30 02:40:00,
2013-09-29 22:45:00,68.0,54.1,29.97,ESE,105,0.0,0.0,61,0.00,,---,0.00,VWS V14.01,2013-09-30 02:45:00,
2013-09-29 22:50:00,67.8,54.3,29.97,ESE,105,0.0,0.0,62,0.00,,---,0.00,VWS V14.01,2013-09-30 02:50:00,
2013-09-29 22:55:00,67.8,54.3,29.97,ESE,105,0.0,0.0,62,0.00,,---,0.00,VWS V14.01,2013-09-30 02:55:00,
2013-09-29 23:00:00,67.8,54.3,29.97,ESE,105,0.0,0.0,62,0.00,,---,0.00,VWS V14.01,2013-09-30 03:00:00,
2013-09-29 23:05:00,67.6,54.2,29.94,ESE,105,0.0,0.0,62,0.00,,---,0.00,VWS V14.01,2013-09-30 03:05:00,
2013-09-29 23:10:00,67.6,54.2,29.94,ESE,105,0.0,0.0,62,0.00,,---,0.00,VWS V14.01,2013-09-30 03:10:00,
2013-09-29 23:15:00,67.6,54.6,29.94,ESE,105,0.0,0.0,63,0.00,,---,0.00,VWS V14.01,2013-09-30 03:15:00,
2013-09-29 23:20:00,67.6,54.6,29.94,ESE,105,0.0,0.0,63,0.00,,---,0.00,VWS V14.01,2013-09-30 03:20:00,
2013-09-29 23:25:00,67.5,54.4,29.94,ESE,105,0.0,0.0,63,0.00,,---,0.00,VWS V14.01,2013-09-30 03:25:00,
2013-09-29 23:30:00,67.5,54.4,29.94,ESE,105,0.0,0.0,63,0.00,,---,0.00,VWS V14.01,2013-09-30 03:30:00,
2013-09-29 23:35:00,67.6,54.6,29.94,ESE,105,0.0,0.0,63,0.00,,---,0.00,VWS V14.01,2013-09-30 03:35:00,
2013-09-29 23:40:00,67.6,54.6,29.94,ESE,105,0.0,0.0,63,0.00,,---,0.00,VWS V14.01,2013-09-30 03:40:00,
2013-09-29 23:45:00,67.6,54.6,29.94,ESE,105,0.0,0.0,63,0.00,,---,0.00,VWS V14.01,2013-09-30 03:45:00,
2013-09-29 23:50:00,67.6,54.6,29.94,ESE,105,0.0,0.0,63,0.00,,---,0.00,VWS V14.01,2013-09-30 03:50:00,
2013-09-29 23:55:00,67.8,54.8,29.94,ESE,105,0.0,0.0,63,0.00,,---,0.00,VWS V14.01,2013-09-30 03:55:00,